createdAt,value
2022-11-26T00:01:44.898Z,34.35
2022-11-26T00:04:13.711Z,35.27
2022-11-26T00:06:44.967Z,35.13
2022-11-26T00:09:25.098Z,32.80
2022-11-26T00:11:54.072Z,39.87
2022-11-26T00:14:22.862Z,37.73
2022-11-26T00:16:51.847Z,51.83
2022-11-26T00:19:20.901Z,44.23
2022-11-26T00:21:49.711Z,66.67
2022-11-26T00:24:28.290Z,72.83
2022-11-26T00:27:00.221Z,68.13
2022-11-26T00:29:29.346Z,63.63
2022-11-26T00:31:58.241Z,70.47
2022-11-26T00:34:27.164Z,66.57
2022-11-26T00:36:56.355Z,81.43
2022-11-26T00:39:26.661Z,82.20
2022-11-26T00:41:55.597Z,96.00
2022-11-26T00:44:25.646Z,99.13
2022-11-26T00:46:54.914Z,102.73
2022-11-26T00:49:24.362Z,110.60
2022-11-26T00:51:53.343Z,93.80
2022-11-26T00:54:23.603Z,94.50
2022-11-26T00:56:53.979Z,85.70
2022-11-26T00:59:41.420Z,81.05
2022-11-26T01:02:11.121Z,67.70
2022-11-26T01:04:40.266Z,62.45
2022-11-26T01:07:11.454Z,62.00
2022-11-26T01:09:40.685Z,62.10
2022-11-26T01:12:15.300Z,91.63
2022-11-26T01:14:44.199Z,89.40
2022-11-26T01:25:03.051Z,52.50
2022-11-26T15:04:26.643Z,38.47
2022-11-26T15:06:55.977Z,44.87
2022-11-26T15:09:26.620Z,35.90
2022-11-26T15:12:06.239Z,35.07
2022-11-26T15:14:42.561Z,53.83
2022-11-26T15:17:16.152Z,54.97
2022-11-26T15:19:45.817Z,37.87
2022-11-26T15:22:22.542Z,15.33
2022-11-26T15:24:52.597Z,9.73
2022-11-26T15:27:36.400Z,10.90
2022-11-26T15:30:19.405Z,11.93
2022-11-26T15:33:14.523Z,13.70
2022-11-26T15:35:44.153Z,11.30
2022-11-26T15:38:15.863Z,9.97
2022-11-26T15:40:48.520Z,10.10
2022-11-26T15:43:23.016Z,10.10
2022-11-26T15:45:54.912Z,14.07
2022-11-26T15:48:44.122Z,12.20
2022-11-26T15:51:24.112Z,13.27
2022-11-26T15:53:53.529Z,12.27
2022-11-26T15:56:26.250Z,13.00
2022-11-26T15:58:58.330Z,12.10
2022-11-26T16:01:32.947Z,11.87
2022-11-26T16:04:06.182Z,12.07
2022-11-26T16:06:37.147Z,13.93
2022-11-26T16:09:27.699Z,14.03
2022-11-26T16:12:01.568Z,13.33
2022-11-26T16:14:33.074Z,13.50
2022-11-26T16:17:08.505Z,12.57
2022-11-26T16:19:38.903Z,16.00
2022-11-26T16:22:18.396Z,13.80
2022-11-26T16:24:47.338Z,13.27
2022-11-26T16:27:28.514Z,13.30
2022-11-26T16:29:57.673Z,13.40
2022-11-26T16:32:28.117Z,13.00
2022-11-26T16:34:57.086Z,14.03
2022-11-26T16:37:28.073Z,16.87
2022-11-26T16:40:04.319Z,36.23
2022-11-26T16:42:34.777Z,61.93
2022-11-26T16:45:04.489Z,110.83
2022-11-26T16:47:39.636Z,188.30
2022-11-26T16:50:18.527Z,183.83
2022-11-26T16:52:54.352Z,256.30
2022-11-26T16:55:26.080Z,101.27
2022-11-26T16:57:58.171Z,43.93
2022-11-26T17:00:27.919Z,30.53
2022-11-26T17:02:58.378Z,19.03
2022-11-26T17:05:27.370Z,16.40
2022-11-26T17:07:59.280Z,15.87
2022-11-26T17:10:30.587Z,16.80
2022-11-26T17:13:00.019Z,16.97
2022-11-26T17:15:47.523Z,22.10
2022-11-26T17:18:20.569Z,50.40
2022-11-26T17:20:49.874Z,45.97
2022-11-26T17:23:19.015Z,34.50
2022-11-26T17:25:51.673Z,22.70
2022-11-26T17:28:21.354Z,24.30
2022-11-26T17:30:50.545Z,17.97
2022-11-26T17:33:31.589Z,16.47
2022-11-26T17:36:27.407Z,16.70
2022-11-26T17:38:57.732Z,17.17
2022-11-26T17:41:26.498Z,18.43
2022-11-26T17:43:55.588Z,19.53
2022-11-26T17:46:24.678Z,19.97
2022-11-26T17:48:59.642Z,18.90
2022-11-26T17:51:29.794Z,21.13
2022-11-26T17:53:59.196Z,16.07
2022-11-26T17:56:28.276Z,11.97
2022-11-26T17:58:57.638Z,13.27
2022-11-26T18:01:26.632Z,16.93
2022-11-26T18:03:56.993Z,20.73
2022-11-26T18:06:36.508Z,20.23
2022-11-26T18:09:05.652Z,21.20
2022-11-26T18:11:47.018Z,18.90
2022-11-26T18:14:15.930Z,14.33
2022-11-26T18:16:45.371Z,10.80
2022-11-26T18:19:18.945Z,9.10
2022-11-26T18:21:49.686Z,8.40
2022-11-26T18:24:18.711Z,7.20
2022-11-26T18:26:47.916Z,7.30
2022-11-26T18:29:16.734Z,8.40
2022-11-26T18:31:45.915Z,8.60
2022-11-26T18:34:16.365Z,8.87
2022-11-26T18:36:50.702Z,13.00
2022-11-26T18:39:37.421Z,19.10
2022-11-26T18:42:36.049Z,24.77
2022-11-26T18:45:17.097Z,30.13
2022-11-26T18:47:51.072Z,31.80
2022-11-26T18:50:22.394Z,31.37
2022-11-26T18:52:51.349Z,27.77
2022-11-26T18:55:20.595Z,20.83
2022-11-26T18:57:49.420Z,25.80
2022-11-26T19:00:19.117Z,45.27
2022-11-26T19:02:48.087Z,49.47
2022-11-26T19:05:17.140Z,63.37
2022-11-26T19:07:47.741Z,74.57
2022-11-26T19:10:35.369Z,61.30
2022-11-26T19:13:04.338Z,70.83
2022-11-26T19:15:33.821Z,79.97
2022-11-26T19:18:02.745Z,85.00
2022-11-26T19:20:31.639Z,72.93
2022-11-26T19:23:01.904Z,46.43
2022-11-26T19:25:31.796Z,35.43
2022-11-26T19:28:04.751Z,29.63
2022-11-26T19:30:40.294Z,16.90
2022-11-26T19:33:09.693Z,14.20
2022-11-26T19:35:41.352Z,11.80
2022-11-26T19:38:11.687Z,22.60
2022-11-26T19:40:41.429Z,36.30
2022-11-26T19:43:10.322Z,47.43
2022-11-26T19:45:39.384Z,47.40
2022-11-26T19:48:08.392Z,28.40
2022-11-26T19:50:37.280Z,15.40
2022-11-26T19:53:06.180Z,13.60
2022-11-26T19:55:36.529Z,14.83
2022-11-26T19:58:05.371Z,19.23
2022-11-26T20:00:34.565Z,27.47
2022-11-26T20:03:03.550Z,32.97
2022-11-26T20:05:32.451Z,48.80
2022-11-26T20:08:01.512Z,54.30
2022-11-26T20:10:30.462Z,65.83
2022-11-26T20:13:00.729Z,77.47
2022-11-26T20:15:29.546Z,69.13
2022-11-26T20:17:58.672Z,46.10
2022-11-26T20:20:27.670Z,32.93
2022-11-26T20:22:56.750Z,30.13
2022-11-26T20:25:25.797Z,27.80
2022-11-26T20:27:54.702Z,27.57
2022-11-26T20:30:25.572Z,26.17
2022-11-26T20:32:54.905Z,26.13
2022-11-26T20:35:24.489Z,25.53
2022-11-26T20:37:54.111Z,30.40
2022-11-26T20:40:23.344Z,24.93
2022-11-26T20:42:52.358Z,23.47
2022-11-26T20:45:22.776Z,21.83
2022-11-26T20:47:53.292Z,23.17
2022-11-26T20:50:22.192Z,23.13
2022-11-26T20:52:51.217Z,22.50
2022-11-26T20:55:22.248Z,25.30
2022-11-26T20:57:51.293Z,23.67
2022-11-26T21:00:26.165Z,26.50
2022-11-26T21:02:57.932Z,26.37
2022-11-26T21:05:27.025Z,26.83
2022-11-26T21:07:56.067Z,27.17
2022-11-26T21:10:26.592Z,30.23
2022-11-26T21:12:55.692Z,27.70
2022-11-26T21:15:24.480Z,26.23
2022-11-26T21:17:53.769Z,28.77
2022-11-26T21:20:24.057Z,28.60
2022-11-26T21:22:52.802Z,30.23
2022-11-26T21:25:21.856Z,29.90
2022-11-26T21:27:55.588Z,30.43
2022-11-26T21:30:24.872Z,30.77
2022-11-26T21:32:53.690Z,26.47
2022-11-26T21:35:24.000Z,24.27
2022-11-26T21:37:53.070Z,24.30
2022-11-26T21:40:21.883Z,23.37
2022-11-26T21:42:50.736Z,22.27
2022-11-26T21:45:19.933Z,20.83
2022-11-26T21:47:51.245Z,17.90
2022-11-26T21:50:20.885Z,18.97
2022-11-26T21:52:51.229Z,18.90
2022-11-26T21:55:20.140Z,18.43
2022-11-26T21:57:49.028Z,17.87
2022-11-26T22:00:19.213Z,16.60
2022-11-26T22:02:48.272Z,15.47
2022-11-26T22:05:17.242Z,15.53
2022-11-26T22:07:46.209Z,19.43
2022-11-26T22:10:17.009Z,23.20
2022-11-26T22:12:47.433Z,24.80
2022-11-26T22:15:16.373Z,25.13
2022-11-26T22:17:45.224Z,23.30
2022-11-26T22:20:15.388Z,20.10
2022-11-26T22:22:44.371Z,20.40
2022-11-26T22:25:13.261Z,19.07
2022-11-26T22:27:43.597Z,16.93
2022-11-26T22:30:13.356Z,16.87
2022-11-26T22:32:42.165Z,17.30
2022-11-26T22:35:11.283Z,16.77
2022-11-26T22:37:40.023Z,17.83
2022-11-26T22:40:10.328Z,17.47
2022-11-26T22:42:41.200Z,17.40
2022-11-26T22:45:13.239Z,18.30
2022-11-26T22:47:42.223Z,17.07
2022-11-26T22:50:11.486Z,18.97
2022-11-26T22:52:40.511Z,17.47
2022-11-26T22:55:10.335Z,17.00
2022-11-26T22:57:39.269Z,17.10
2022-11-26T23:00:13.747Z,19.17
2022-11-26T23:02:42.732Z,20.60
2022-11-26T23:05:12.089Z,17.87
2022-11-26T23:07:41.509Z,17.07
2022-11-26T23:10:11.013Z,16.73
2022-11-26T23:12:40.366Z,22.20
2022-11-26T23:15:12.413Z,32.33
2022-11-26T23:17:41.245Z,41.37
2022-11-26T23:20:10.657Z,50.60
2022-11-26T23:22:39.688Z,54.37
2022-11-26T23:25:10.236Z,85.60
2022-11-26T23:27:39.258Z,93.33
2022-11-26T23:30:09.457Z,73.57
2022-11-26T23:32:39.719Z,75.43
2022-11-26T23:35:09.141Z,76.60
2022-11-26T23:37:39.200Z,59.47
2022-11-26T23:40:09.790Z,35.67
2022-11-26T23:42:38.773Z,36.80
2022-11-26T23:45:08.585Z,44.50
2022-11-26T23:47:40.035Z,49.47
2022-11-26T23:50:10.066Z,55.83
2022-11-26T23:52:39.071Z,60.77
2022-11-26T23:55:09.037Z,68.73
2022-11-26T23:57:38.785Z,66.97
